sensor_id;sensor_type;location;lat;lon;timestamp;P1;durP1;ratioP1;P2;durP2;ratioP2
16127;SDS011;8168;49.036;7.690;2023-04-23T00:00:24;6.77;;;3.80;;
16127;SDS011;8168;49.036;7.690;2023-04-23T00:02:56;2.80;;;2.60;;
16127;SDS011;8168;49.036;7.690;2023-04-23T00:05:27;3.70;;;3.10;;
16127;SDS011;8168;49.036;7.690;2023-04-23T00:07:59;5.10;;;3.27;;
16127;SDS011;8168;49.036;7.690;2023-04-23T00:10:31;4.73;;;3.60;;
16127;SDS011;8168;49.036;7.690;2023-04-23T00:13:01;4.13;;;3.20;;
16127;SDS011;8168;49.036;7.690;2023-04-23T00:15:33;3.87;;;2.97;;
16127;SDS011;8168;49.036;7.690;2023-04-23T00:18:04;4.73;;;3.27;;
16127;SDS011;8168;49.036;7.690;2023-04-23T00:20:34;4.33;;;3.17;;
16127;SDS011;8168;49.036;7.690;2023-04-23T00:23:06;4.93;;;3.43;;
16127;SDS011;8168;49.036;7.690;2023-04-23T00:25:36;4.73;;;3.60;;
16127;SDS011;8168;49.036;7.690;2023-04-23T00:28:07;3.50;;;3.20;;
16127;SDS011;8168;49.036;7.690;2023-04-23T00:30:37;4.63;;;3.20;;
16127;SDS011;8168;49.036;7.690;2023-04-23T00:33:08;3.07;;;2.77;;
16127;SDS011;8168;49.036;7.690;2023-04-23T00:35:39;3.10;;;2.80;;
16127;SDS011;8168;49.036;7.690;2023-04-23T00:38:10;4.10;;;2.93;;
16127;SDS011;8168;49.036;7.690;2023-04-23T00:40:40;3.20;;;2.90;;
16127;SDS011;8168;49.036;7.690;2023-04-23T00:43:11;2.50;;;2.30;;
16127;SDS011;8168;49.036;7.690;2023-04-23T00:45:42;3.47;;;2.77;;
16127;SDS011;8168;49.036;7.690;2023-04-23T00:48:13;6.70;;;3.60;;
16127;SDS011;8168;49.036;7.690;2023-04-23T00:50:44;5.53;;;3.30;;
16127;SDS011;8168;49.036;7.690;2023-04-23T00:53:15;3.10;;;2.80;;
16127;SDS011;8168;49.036;7.690;2023-04-23T00:55:46;3.77;;;2.70;;
16127;SDS011;8168;49.036;7.690;2023-04-23T00:58:16;3.37;;;2.93;;
16127;SDS011;8168;49.036;7.690;2023-04-23T01:00:47;3.03;;;2.73;;
16127;SDS011;8168;49.036;7.690;2023-04-23T01:03:20;3.43;;;2.83;;
16127;SDS011;8168;49.036;7.690;2023-04-23T01:05:52;3.37;;;2.90;;
16127;SDS011;8168;49.036;7.690;2023-04-23T01:08:22;3.73;;;2.87;;
16127;SDS011;8168;49.036;7.690;2023-04-23T01:10:54;3.43;;;3.00;;
16127;SDS011;8168;49.036;7.690;2023-04-23T01:13:25;3.93;;;3.03;;
16127;SDS011;8168;49.036;7.690;2023-04-23T01:15:58;3.30;;;2.93;;
16127;SDS011;8168;49.036;7.690;2023-04-23T01:18:29;2.83;;;2.63;;
16127;SDS011;8168;49.036;7.690;2023-04-23T01:21:00;3.40;;;3.00;;
16127;SDS011;8168;49.036;7.690;2023-04-23T01:23:31;5.43;;;3.30;;
16127;SDS011;8168;49.036;7.690;2023-04-23T01:26:02;3.00;;;2.70;;
16127;SDS011;8168;49.036;7.690;2023-04-23T01:28:32;3.20;;;2.90;;
16127;SDS011;8168;49.036;7.690;2023-04-23T01:31:03;3.27;;;2.80;;
16127;SDS011;8168;49.036;7.690;2023-04-23T01:33:34;2.70;;;2.50;;
16127;SDS011;8168;49.036;7.690;2023-04-23T01:36:06;4.10;;;2.77;;
16127;SDS011;8168;49.036;7.690;2023-04-23T01:38:37;3.60;;;2.70;;
16127;SDS011;8168;49.036;7.690;2023-04-23T01:41:08;2.70;;;2.50;;
16127;SDS011;8168;49.036;7.690;2023-04-23T01:43:40;2.80;;;2.50;;
16127;SDS011;8168;49.036;7.690;2023-04-23T01:46:11;3.07;;;2.70;;
16127;SDS011;8168;49.036;7.690;2023-04-23T01:48:42;3.13;;;2.43;;
16127;SDS011;8168;49.036;7.690;2023-04-23T01:51:13;2.53;;;2.33;;
16127;SDS011;8168;49.036;7.690;2023-04-23T01:53:44;2.57;;;2.37;;
16127;SDS011;8168;49.036;7.690;2023-04-23T01:56:15;2.87;;;2.30;;
16127;SDS011;8168;49.036;7.690;2023-04-23T01:58:46;6.60;;;2.23;;
16127;SDS011;8168;49.036;7.690;2023-04-23T02:01:16;2.63;;;2.17;;
16127;SDS011;8168;49.036;7.690;2023-04-23T02:03:50;3.13;;;1.97;;
16127;SDS011;8168;49.036;7.690;2023-04-23T02:06:21;2.33;;;2.13;;
16127;SDS011;8168;49.036;7.690;2023-04-23T02:08:51;2.33;;;2.13;;
16127;SDS011;8168;49.036;7.690;2023-04-23T02:11:22;2.83;;;2.20;;
16127;SDS011;8168;49.036;7.690;2023-04-23T02:13:52;2.50;;;2.30;;
16127;SDS011;8168;49.036;7.690;2023-04-23T02:16:23;5.13;;;1.77;;
16127;SDS011;8168;49.036;7.690;2023-04-23T02:18:54;2.77;;;1.87;;
16127;SDS011;8168;49.036;7.690;2023-04-23T02:21:24;2.00;;;1.83;;
16127;SDS011;8168;49.036;7.690;2023-04-23T02:23:56;5.70;;;2.10;;
16127;SDS011;8168;49.036;7.690;2023-04-23T02:26:27;1.87;;;1.77;;
16127;SDS011;8168;49.036;7.690;2023-04-23T02:28:58;2.03;;;1.83;;
16127;SDS011;8168;49.036;7.690;2023-04-23T02:31:28;2.23;;;1.80;;
16127;SDS011;8168;49.036;7.690;2023-04-23T02:33:59;1.73;;;1.63;;
16127;SDS011;8168;49.036;7.690;2023-04-23T02:36:30;2.37;;;2.07;;
16127;SDS011;8168;49.036;7.690;2023-04-23T02:39:01;1.87;;;1.77;;
16127;SDS011;8168;49.036;7.690;2023-04-23T02:41:32;3.47;;;2.40;;
16127;SDS011;8168;49.036;7.690;2023-04-23T02:44:03;3.83;;;1.80;;
16127;SDS011;8168;49.036;7.690;2023-04-23T02:46:33;2.03;;;1.83;;
16127;SDS011;8168;49.036;7.690;2023-04-23T02:49:06;3.30;;;1.70;;
16127;SDS011;8168;49.036;7.690;2023-04-23T02:51:36;1.77;;;1.63;;
16127;SDS011;8168;49.036;7.690;2023-04-23T02:54:07;1.70;;;1.60;;
16127;SDS011;8168;49.036;7.690;2023-04-23T02:56:38;2.10;;;1.90;;
16127;SDS011;8168;49.036;7.690;2023-04-23T02:59:09;1.90;;;1.50;;
16127;SDS011;8168;49.036;7.690;2023-04-23T03:01:39;3.20;;;1.90;;
16127;SDS011;8168;49.036;7.690;2023-04-23T03:04:10;1.50;;;1.40;;
16127;SDS011;8168;49.036;7.690;2023-04-23T03:06:41;2.93;;;1.57;;
16127;SDS011;8168;49.036;7.690;2023-04-23T03:09:11;1.93;;;1.83;;
16127;SDS011;8168;49.036;7.690;2023-04-23T03:11:42;1.60;;;1.50;;
16127;SDS011;8168;49.036;7.690;2023-04-23T03:14:13;1.90;;;1.73;;
16127;SDS011;8168;49.036;7.690;2023-04-23T03:16:43;2.43;;;1.80;;
16127;SDS011;8168;49.036;7.690;2023-04-23T03:19:14;2.57;;;1.90;;
16127;SDS011;8168;49.036;7.690;2023-04-23T03:21:45;3.07;;;1.80;;
16127;SDS011;8168;49.036;7.690;2023-04-23T03:24:16;4.33;;;1.90;;
16127;SDS011;8168;49.036;7.690;2023-04-23T03:26:46;1.80;;;1.57;;
16127;SDS011;8168;49.036;7.690;2023-04-23T03:29:17;1.80;;;1.70;;
16127;SDS011;8168;49.036;7.690;2023-04-23T03:31:47;2.30;;;1.70;;
16127;SDS011;8168;49.036;7.690;2023-04-23T03:34:18;3.23;;;1.90;;
16127;SDS011;8168;49.036;7.690;2023-04-23T03:36:49;2.20;;;2.00;;
16127;SDS011;8168;49.036;7.690;2023-04-23T03:39:20;1.80;;;1.70;;
16127;SDS011;8168;49.036;7.690;2023-04-23T03:41:50;1.70;;;1.60;;
16127;SDS011;8168;49.036;7.690;2023-04-23T03:44:21;2.60;;;2.00;;
16127;SDS011;8168;49.036;7.690;2023-04-23T03:46:51;1.70;;;1.60;;
16127;SDS011;8168;49.036;7.690;2023-04-23T03:49:22;1.80;;;1.70;;
16127;SDS011;8168;49.036;7.690;2023-04-23T03:51:53;2.67;;;1.60;;
16127;SDS011;8168;49.036;7.690;2023-04-23T03:54:24;1.57;;;1.43;;
16127;SDS011;8168;49.036;7.690;2023-04-23T03:56:55;1.70;;;1.60;;
16127;SDS011;8168;49.036;7.690;2023-04-23T03:59:26;3.90;;;1.83;;
16127;SDS011;8168;49.036;7.690;2023-04-23T04:01:57;2.23;;;2.03;;
16127;SDS011;8168;49.036;7.690;2023-04-23T04:04:27;2.40;;;2.13;;
16127;SDS011;8168;49.036;7.690;2023-04-23T04:06:59;4.10;;;2.23;;
16127;SDS011;8168;49.036;7.690;2023-04-23T04:09:29;2.63;;;2.43;;
16127;SDS011;8168;49.036;7.690;2023-04-23T04:12:00;4.47;;;3.13;;
16127;SDS011;8168;49.036;7.690;2023-04-23T04:14:31;3.00;;;2.70;;
16127;SDS011;8168;49.036;7.690;2023-04-23T04:17:02;3.47;;;2.70;;
16127;SDS011;8168;49.036;7.690;2023-04-23T04:19:32;2.57;;;2.30;;
16127;SDS011;8168;49.036;7.690;2023-04-23T04:22:03;2.30;;;2.10;;
16127;SDS011;8168;49.036;7.690;2023-04-23T04:24:34;2.80;;;2.47;;
16127;SDS011;8168;49.036;7.690;2023-04-23T04:27:05;4.53;;;3.30;;
16127;SDS011;8168;49.036;7.690;2023-04-23T04:29:35;3.57;;;3.17;;
16127;SDS011;8168;49.036;7.690;2023-04-23T04:32:09;3.53;;;2.80;;
16127;SDS011;8168;49.036;7.690;2023-04-23T04:34:40;2.77;;;2.40;;
16127;SDS011;8168;49.036;7.690;2023-04-23T04:37:10;2.80;;;2.60;;
16127;SDS011;8168;49.036;7.690;2023-04-23T04:39:41;3.43;;;2.67;;
16127;SDS011;8168;49.036;7.690;2023-04-23T04:42:12;2.67;;;2.23;;
16127;SDS011;8168;49.036;7.690;2023-04-23T04:44:43;6.43;;;2.50;;
16127;SDS011;8168;49.036;7.690;2023-04-23T04:47:13;2.77;;;2.53;;
16127;SDS011;8168;49.036;7.690;2023-04-23T04:49:45;2.87;;;2.53;;
16127;SDS011;8168;49.036;7.690;2023-04-23T04:52:16;3.53;;;2.50;;
16127;SDS011;8168;49.036;7.690;2023-04-23T04:54:46;3.40;;;2.70;;
16127;SDS011;8168;49.036;7.690;2023-04-23T04:57:17;2.20;;;2.00;;
16127;SDS011;8168;49.036;7.690;2023-04-23T04:59:49;4.13;;;2.40;;
16127;SDS011;8168;49.036;7.690;2023-04-23T05:02:19;3.67;;;3.13;;
16127;SDS011;8168;49.036;7.690;2023-04-23T05:04:52;3.90;;;2.60;;
16127;SDS011;8168;49.036;7.690;2023-04-23T05:07:22;2.50;;;2.20;;
16127;SDS011;8168;49.036;7.690;2023-04-23T05:09:53;3.33;;;1.87;;
16127;SDS011;8168;49.036;7.690;2023-04-23T05:12:24;3.20;;;2.27;;
16127;SDS011;8168;49.036;7.690;2023-04-23T05:14:54;3.17;;;2.60;;
16127;SDS011;8168;49.036;7.690;2023-04-23T05:17:25;2.50;;;2.30;;
16127;SDS011;8168;49.036;7.690;2023-04-23T05:19:55;2.90;;;2.40;;
16127;SDS011;8168;49.036;7.690;2023-04-23T05:22:26;2.73;;;2.53;;
16127;SDS011;8168;49.036;7.690;2023-04-23T05:24:57;3.37;;;2.47;;
16127;SDS011;8168;49.036;7.690;2023-04-23T05:27:27;6.90;;;3.30;;
16127;SDS011;8168;49.036;7.690;2023-04-23T05:29:59;5.63;;;3.10;;
16127;SDS011;8168;49.036;7.690;2023-04-23T05:32:30;3.80;;;3.20;;
16127;SDS011;8168;49.036;7.690;2023-04-23T05:35:01;5.03;;;3.53;;
16127;SDS011;8168;49.036;7.690;2023-04-23T05:37:32;4.97;;;4.17;;
16127;SDS011;8168;49.036;7.690;2023-04-23T05:40:03;5.23;;;4.13;;
16127;SDS011;8168;49.036;7.690;2023-04-23T05:42:36;6.67;;;3.63;;
16127;SDS011;8168;49.036;7.690;2023-04-23T05:45:07;3.20;;;2.90;;
16127;SDS011;8168;49.036;7.690;2023-04-23T05:47:38;2.70;;;2.50;;
16127;SDS011;8168;49.036;7.690;2023-04-23T05:50:09;3.50;;;3.20;;
16127;SDS011;8168;49.036;7.690;2023-04-23T05:52:40;2.80;;;2.50;;
16127;SDS011;8168;49.036;7.690;2023-04-23T05:55:11;3.70;;;2.53;;
16127;SDS011;8168;49.036;7.690;2023-04-23T05:57:44;3.50;;;3.20;;
16127;SDS011;8168;49.036;7.690;2023-04-23T06:00:15;4.10;;;3.37;;
16127;SDS011;8168;49.036;7.690;2023-04-23T06:02:46;4.07;;;3.67;;
16127;SDS011;8168;49.036;7.690;2023-04-23T06:05:16;6.60;;;4.10;;
16127;SDS011;8168;49.036;7.690;2023-04-23T06:07:47;4.60;;;4.10;;
16127;SDS011;8168;49.036;7.690;2023-04-23T06:10:18;4.53;;;4.03;;
16127;SDS011;8168;49.036;7.690;2023-04-23T06:12:48;4.63;;;3.73;;
16127;SDS011;8168;49.036;7.690;2023-04-23T06:15:19;6.03;;;3.63;;
16127;SDS011;8168;49.036;7.690;2023-04-23T06:17:50;7.90;;;4.37;;
16127;SDS011;8168;49.036;7.690;2023-04-23T06:20:21;5.00;;;4.50;;
16127;SDS011;8168;49.036;7.690;2023-04-23T06:22:51;8.37;;;5.70;;
16127;SDS011;8168;49.036;7.690;2023-04-23T06:25:22;3.87;;;3.47;;
16127;SDS011;8168;49.036;7.690;2023-04-23T06:27:53;4.60;;;4.20;;
16127;SDS011;8168;49.036;7.690;2023-04-23T06:30:23;5.43;;;3.80;;
16127;SDS011;8168;49.036;7.690;2023-04-23T06:32:54;5.83;;;4.47;;
16127;SDS011;8168;49.036;7.690;2023-04-23T06:35:24;5.83;;;4.30;;
16127;SDS011;8168;49.036;7.690;2023-04-23T06:37:55;6.77;;;4.37;;
16127;SDS011;8168;49.036;7.690;2023-04-23T06:40:25;4.30;;;3.80;;
16127;SDS011;8168;49.036;7.690;2023-04-23T06:42:56;4.20;;;3.37;;
16127;SDS011;8168;49.036;7.690;2023-04-23T06:45:27;3.53;;;3.23;;
16127;SDS011;8168;49.036;7.690;2023-04-23T06:48:00;3.50;;;3.20;;
16127;SDS011;8168;49.036;7.690;2023-04-23T06:50:30;3.33;;;2.93;;
16127;SDS011;8168;49.036;7.690;2023-04-23T06:53:01;3.47;;;2.87;;
16127;SDS011;8168;49.036;7.690;2023-04-23T06:55:32;3.07;;;2.73;;
16127;SDS011;8168;49.036;7.690;2023-04-23T06:58:02;3.57;;;3.27;;
16127;SDS011;8168;49.036;7.690;2023-04-23T07:00:33;3.00;;;2.67;;
16127;SDS011;8168;49.036;7.690;2023-04-23T07:03:03;3.13;;;2.83;;
16127;SDS011;8168;49.036;7.690;2023-04-23T07:05:34;3.70;;;3.30;;
16127;SDS011;8168;49.036;7.690;2023-04-23T07:08:05;3.37;;;3.07;;
16127;SDS011;8168;49.036;7.690;2023-04-23T07:10:35;3.60;;;3.03;;
16127;SDS011;8168;49.036;7.690;2023-04-23T07:13:06;4.70;;;3.30;;
16127;SDS011;8168;49.036;7.690;2023-04-23T07:15:37;4.00;;;3.23;;
16127;SDS011;8168;49.036;7.690;2023-04-23T07:18:08;3.30;;;2.83;;
16127;SDS011;8168;49.036;7.690;2023-04-23T07:20:38;3.47;;;3.17;;
16127;SDS011;8168;49.036;7.690;2023-04-23T07:23:09;4.40;;;3.10;;
16127;SDS011;8168;49.036;7.690;2023-04-23T07:25:40;3.13;;;2.80;;
16127;SDS011;8168;49.036;7.690;2023-04-23T07:28:11;3.47;;;2.93;;
16127;SDS011;8168;49.036;7.690;2023-04-23T07:30:41;4.33;;;3.10;;
16127;SDS011;8168;49.036;7.690;2023-04-23T07:33:15;3.43;;;3.10;;
16127;SDS011;8168;49.036;7.690;2023-04-23T07:35:46;3.40;;;3.10;;
16127;SDS011;8168;49.036;7.690;2023-04-23T07:38:16;4.50;;;3.07;;
16127;SDS011;8168;49.036;7.690;2023-04-23T07:40:47;2.73;;;2.47;;
16127;SDS011;8168;49.036;7.690;2023-04-23T07:43:17;2.70;;;2.50;;
16127;SDS011;8168;49.036;7.690;2023-04-23T07:45:48;4.50;;;2.67;;
16127;SDS011;8168;49.036;7.690;2023-04-23T07:48:19;3.00;;;2.70;;
16127;SDS011;8168;49.036;7.690;2023-04-23T07:50:49;2.60;;;2.40;;
16127;SDS011;8168;49.036;7.690;2023-04-23T07:53:20;3.03;;;2.60;;
16127;SDS011;8168;49.036;7.690;2023-04-23T07:55:51;3.13;;;2.67;;
16127;SDS011;8168;49.036;7.690;2023-04-23T07:58:22;4.90;;;3.40;;
16127;SDS011;8168;49.036;7.690;2023-04-23T08:00:53;3.13;;;2.83;;
16127;SDS011;8168;49.036;7.690;2023-04-23T08:03:24;3.33;;;2.77;;
16127;SDS011;8168;49.036;7.690;2023-04-23T08:05:55;4.73;;;3.00;;
16127;SDS011;8168;49.036;7.690;2023-04-23T08:08:25;3.27;;;2.43;;
16127;SDS011;8168;49.036;7.690;2023-04-23T08:10:56;2.67;;;2.40;;
16127;SDS011;8168;49.036;7.690;2023-04-23T08:13:27;2.50;;;2.30;;
16127;SDS011;8168;49.036;7.690;2023-04-23T08:15:58;2.70;;;2.33;;
16127;SDS011;8168;49.036;7.690;2023-04-23T08:18:29;3.80;;;2.70;;
16127;SDS011;8168;49.036;7.690;2023-04-23T08:20:59;2.67;;;2.43;;
16127;SDS011;8168;49.036;7.690;2023-04-23T08:23:30;4.87;;;2.60;;
16127;SDS011;8168;49.036;7.690;2023-04-23T08:26:01;8.10;;;2.60;;
16127;SDS011;8168;49.036;7.690;2023-04-23T08:28:32;5.73;;;2.43;;
16127;SDS011;8168;49.036;7.690;2023-04-23T08:31:02;3.37;;;2.53;;
16127;SDS011;8168;49.036;7.690;2023-04-23T08:33:33;2.13;;;2.00;;
16127;SDS011;8168;49.036;7.690;2023-04-23T08:36:04;2.57;;;2.30;;
16127;SDS011;8168;49.036;7.690;2023-04-23T08:38:34;2.57;;;2.33;;
16127;SDS011;8168;49.036;7.690;2023-04-23T08:41:05;3.27;;;2.30;;
16127;SDS011;8168;49.036;7.690;2023-04-23T08:44:04;2.83;;;2.33;;
16127;SDS011;8168;49.036;7.690;2023-04-23T08:46:46;2.40;;;2.20;;
16127;SDS011;8168;49.036;7.690;2023-04-23T08:49:18;2.33;;;2.13;;
16127;SDS011;8168;49.036;7.690;2023-04-23T08:51:51;2.63;;;2.43;;
16127;SDS011;8168;49.036;7.690;2023-04-23T08:54:26;2.63;;;2.37;;
16127;SDS011;8168;49.036;7.690;2023-04-23T08:56:57;3.93;;;2.50;;
16127;SDS011;8168;49.036;7.690;2023-04-23T08:59:29;2.77;;;2.40;;
16127;SDS011;8168;49.036;7.690;2023-04-23T09:02:00;4.00;;;2.37;;
16127;SDS011;8168;49.036;7.690;2023-04-23T09:04:36;5.40;;;2.10;;
16127;SDS011;8168;49.036;7.690;2023-04-23T09:07:08;3.90;;;2.60;;
16127;SDS011;8168;49.036;7.690;2023-04-23T09:09:40;3.63;;;2.13;;
16127;SDS011;8168;49.036;7.690;2023-04-23T09:12:11;2.63;;;2.30;;
16127;SDS011;8168;49.036;7.690;2023-04-23T09:14:41;5.70;;;2.57;;
16127;SDS011;8168;49.036;7.690;2023-04-23T09:17:12;2.80;;;2.50;;
16127;SDS011;8168;49.036;7.690;2023-04-23T09:19:42;3.77;;;2.60;;
16127;SDS011;8168;49.036;7.690;2023-04-23T09:22:16;2.60;;;2.40;;
16127;SDS011;8168;49.036;7.690;2023-04-23T09:25:09;3.17;;;2.70;;
16127;SDS011;8168;49.036;7.690;2023-04-23T09:27:41;3.37;;;2.63;;
16127;SDS011;8168;49.036;7.690;2023-04-23T09:30:11;2.80;;;2.60;;
16127;SDS011;8168;49.036;7.690;2023-04-23T09:32:44;3.27;;;2.97;;
16127;SDS011;8168;49.036;7.690;2023-04-23T09:35:16;2.50;;;2.30;;
16127;SDS011;8168;49.036;7.690;2023-04-23T09:37:49;3.37;;;2.50;;
16127;SDS011;8168;49.036;7.690;2023-04-23T09:40:22;2.83;;;2.37;;
16127;SDS011;8168;49.036;7.690;2023-04-23T09:42:54;2.60;;;2.33;;
16127;SDS011;8168;49.036;7.690;2023-04-23T09:45:24;3.20;;;2.20;;
16127;SDS011;8168;49.036;7.690;2023-04-23T09:47:56;2.90;;;2.00;;
16127;SDS011;8168;49.036;7.690;2023-04-23T09:50:33;3.20;;;2.47;;
16127;SDS011;8168;49.036;7.690;2023-04-23T09:53:06;2.87;;;2.47;;
16127;SDS011;8168;49.036;7.690;2023-04-23T09:55:38;2.63;;;2.10;;
16127;SDS011;8168;49.036;7.690;2023-04-23T09:58:11;5.33;;;2.10;;
16127;SDS011;8168;49.036;7.690;2023-04-23T10:00:44;2.37;;;2.13;;
16127;SDS011;8168;49.036;7.690;2023-04-23T10:03:15;2.77;;;1.90;;
16127;SDS011;8168;49.036;7.690;2023-04-23T10:05:55;1.90;;;1.80;;
16127;SDS011;8168;49.036;7.690;2023-04-23T10:08:27;2.47;;;2.27;;
16127;SDS011;8168;49.036;7.690;2023-04-23T10:11:00;3.03;;;2.17;;
16127;SDS011;8168;49.036;7.690;2023-04-23T10:13:32;2.20;;;2.00;;
16127;SDS011;8168;49.036;7.690;2023-04-23T10:16:05;2.80;;;1.87;;
16127;SDS011;8168;49.036;7.690;2023-04-23T10:18:36;3.67;;;2.50;;
16127;SDS011;8168;49.036;7.690;2023-04-23T10:21:07;3.10;;;1.80;;
16127;SDS011;8168;49.036;7.690;2023-04-23T10:23:41;2.83;;;2.10;;
16127;SDS011;8168;49.036;7.690;2023-04-23T10:26:15;2.60;;;2.20;;
16127;SDS011;8168;49.036;7.690;2023-04-23T10:28:46;2.63;;;1.93;;
16127;SDS011;8168;49.036;7.690;2023-04-23T10:31:19;3.30;;;2.03;;
16127;SDS011;8168;49.036;7.690;2023-04-23T10:33:51;4.83;;;1.90;;
16127;SDS011;8168;49.036;7.690;2023-04-23T10:36:24;2.00;;;1.80;;
16127;SDS011;8168;49.036;7.690;2023-04-23T10:38:56;2.77;;;2.10;;
16127;SDS011;8168;49.036;7.690;2023-04-23T10:41:32;2.20;;;2.00;;
16127;SDS011;8168;49.036;7.690;2023-04-23T10:44:11;2.50;;;1.63;;
16127;SDS011;8168;49.036;7.690;2023-04-23T10:46:52;2.03;;;1.47;;
16127;SDS011;8168;49.036;7.690;2023-04-23T10:49:28;1.30;;;1.20;;
16127;SDS011;8168;49.036;7.690;2023-04-23T10:52:07;1.53;;;1.43;;
16127;SDS011;8168;49.036;7.690;2023-04-23T10:54:48;2.40;;;1.70;;
16127;SDS011;8168;49.036;7.690;2023-04-23T10:57:26;1.73;;;1.63;;
16127;SDS011;8168;49.036;7.690;2023-04-23T10:59:56;1.80;;;1.70;;
16127;SDS011;8168;49.036;7.690;2023-04-23T11:02:41;1.23;;;1.13;;
16127;SDS011;8168;49.036;7.690;2023-04-23T11:05:13;2.37;;;1.40;;
16127;SDS011;8168;49.036;7.690;2023-04-23T11:08:01;1.57;;;1.30;;
16127;SDS011;8168;49.036;7.690;2023-04-23T11:10:33;2.50;;;1.30;;
16127;SDS011;8168;49.036;7.690;2023-04-23T11:13:21;2.07;;;1.50;;
16127;SDS011;8168;49.036;7.690;2023-04-23T11:21:56;2.30;;;1.43;;
16127;SDS011;8168;49.036;7.690;2023-04-23T11:27:13;1.40;;;1.20;;
16127;SDS011;8168;49.036;7.690;2023-04-23T11:29:45;1.10;;;1.10;;
16127;SDS011;8168;49.036;7.690;2023-04-23T11:32:16;0.90;;;0.90;;
16127;SDS011;8168;49.036;7.690;2023-04-23T11:34:47;1.30;;;1.20;;
16127;SDS011;8168;49.036;7.690;2023-04-23T11:37:19;1.73;;;1.20;;
16127;SDS011;8168;49.036;7.690;2023-04-23T11:39:50;1.47;;;1.37;;
16127;SDS011;8168;49.036;7.690;2023-04-23T11:42:20;1.90;;;1.20;;
16127;SDS011;8168;49.036;7.690;2023-04-23T11:44:51;0.93;;;0.93;;
16127;SDS011;8168;49.036;7.690;2023-04-23T11:47:22;1.50;;;1.10;;
16127;SDS011;8168;49.036;7.690;2023-04-23T11:49:55;1.10;;;1.10;;
16127;SDS011;8168;49.036;7.690;2023-04-23T11:52:25;2.07;;;1.23;;
16127;SDS011;8168;49.036;7.690;2023-04-23T11:54:56;4.37;;;1.67;;
16127;SDS011;8168;49.036;7.690;2023-04-23T11:57:36;1.27;;;1.17;;
16127;SDS011;8168;49.036;7.690;2023-04-23T12:00:16;1.33;;;1.23;;
16127;SDS011;8168;49.036;7.690;2023-04-23T12:02:53;2.33;;;1.40;;
16127;SDS011;8168;49.036;7.690;2023-04-23T12:08:11;1.77;;;1.50;;
16127;SDS011;8168;49.036;7.690;2023-04-23T12:13:22;1.60;;;1.20;;
16127;SDS011;8168;49.036;7.690;2023-04-23T12:15:57;1.73;;;1.20;;
16127;SDS011;8168;49.036;7.690;2023-04-23T12:18:38;1.73;;;1.10;;
16127;SDS011;8168;49.036;7.690;2023-04-23T12:21:11;1.83;;;1.13;;
16127;SDS011;8168;49.036;7.690;2023-04-23T12:23:42;1.47;;;1.00;;
16127;SDS011;8168;49.036;7.690;2023-04-23T12:26:17;1.43;;;1.10;;
16127;SDS011;8168;49.036;7.690;2023-04-23T12:28:52;2.00;;;1.00;;
16127;SDS011;8168;49.036;7.690;2023-04-23T12:31:28;1.53;;;1.00;;
16127;SDS011;8168;49.036;7.690;2023-04-23T12:34:05;0.90;;;0.90;;
16127;SDS011;8168;49.036;7.690;2023-04-23T12:36:37;1.10;;;1.10;;
16127;SDS011;8168;49.036;7.690;2023-04-23T12:39:20;1.00;;;1.00;;
16127;SDS011;8168;49.036;7.690;2023-04-23T12:41:54;0.90;;;0.90;;
16127;SDS011;8168;49.036;7.690;2023-04-23T12:44:30;3.03;;;1.00;;
16127;SDS011;8168;49.036;7.690;2023-04-23T12:47:08;1.33;;;1.23;;
16127;SDS011;8168;49.036;7.690;2023-04-23T12:49:40;1.10;;;0.90;;
16127;SDS011;8168;49.036;7.690;2023-04-23T12:52:11;1.00;;;0.90;;
16127;SDS011;8168;49.036;7.690;2023-04-23T12:54:42;2.07;;;1.10;;
16127;SDS011;8168;49.036;7.690;2023-04-23T12:57:13;0.90;;;0.90;;
16127;SDS011;8168;49.036;7.690;2023-04-23T12:59:44;1.20;;;1.10;;
16127;SDS011;8168;49.036;7.690;2023-04-23T13:02:15;3.17;;;1.60;;
16127;SDS011;8168;49.036;7.690;2023-04-23T13:04:45;1.40;;;1.30;;
16127;SDS011;8168;49.036;7.690;2023-04-23T13:07:16;1.13;;;1.03;;
16127;SDS011;8168;49.036;7.690;2023-04-23T13:09:47;1.27;;;1.17;;
16127;SDS011;8168;49.036;7.690;2023-04-23T13:12:17;1.67;;;1.17;;
16127;SDS011;8168;49.036;7.690;2023-04-23T13:14:48;1.57;;;1.27;;
16127;SDS011;8168;49.036;7.690;2023-04-23T13:17:19;1.43;;;1.23;;
16127;SDS011;8168;49.036;7.690;2023-04-23T13:19:50;1.63;;;1.27;;
16127;SDS011;8168;49.036;7.690;2023-04-23T13:22:25;1.40;;;1.30;;
16127;SDS011;8168;49.036;7.690;2023-04-23T13:24:58;0.97;;;0.93;;
16127;SDS011;8168;49.036;7.690;2023-04-23T13:27:28;1.40;;;1.30;;
16127;SDS011;8168;49.036;7.690;2023-04-23T13:30:00;1.93;;;1.47;;
16127;SDS011;8168;49.036;7.690;2023-04-23T13:32:30;1.27;;;1.10;;
16127;SDS011;8168;49.036;7.690;2023-04-23T13:35:01;1.80;;;1.23;;
16127;SDS011;8168;49.036;7.690;2023-04-23T13:37:33;1.93;;;1.40;;
16127;SDS011;8168;49.036;7.690;2023-04-23T13:40:04;1.30;;;1.00;;
16127;SDS011;8168;49.036;7.690;2023-04-23T13:42:35;1.37;;;1.27;;
16127;SDS011;8168;49.036;7.690;2023-04-23T13:45:06;1.10;;;1.00;;
16127;SDS011;8168;49.036;7.690;2023-04-23T13:47:37;1.20;;;1.10;;
16127;SDS011;8168;49.036;7.690;2023-04-23T13:50:08;1.43;;;1.20;;
16127;SDS011;8168;49.036;7.690;2023-04-23T13:52:39;1.10;;;1.10;;
16127;SDS011;8168;49.036;7.690;2023-04-23T13:55:10;1.67;;;1.20;;
16127;SDS011;8168;49.036;7.690;2023-04-23T13:57:40;1.40;;;1.30;;
16127;SDS011;8168;49.036;7.690;2023-04-23T14:00:11;3.97;;;1.50;;
16127;SDS011;8168;49.036;7.690;2023-04-23T14:02:42;1.33;;;1.10;;
16127;SDS011;8168;49.036;7.690;2023-04-23T14:05:13;1.77;;;1.30;;
16127;SDS011;8168;49.036;7.690;2023-04-23T14:07:44;1.37;;;1.27;;
16127;SDS011;8168;49.036;7.690;2023-04-23T14:10:14;4.80;;;1.50;;
16127;SDS011;8168;49.036;7.690;2023-04-23T14:12:45;2.03;;;1.40;;
16127;SDS011;8168;49.036;7.690;2023-04-23T14:15:16;1.43;;;1.30;;
16127;SDS011;8168;49.036;7.690;2023-04-23T14:17:47;1.87;;;1.40;;
16127;SDS011;8168;49.036;7.690;2023-04-23T14:20:18;2.03;;;1.50;;
16127;SDS011;8168;49.036;7.690;2023-04-23T14:22:53;3.43;;;2.10;;
16127;SDS011;8168;49.036;7.690;2023-04-23T14:25:33;2.07;;;1.47;;
16127;SDS011;8168;49.036;7.690;2023-04-23T14:31:07;2.47;;;1.47;;
16127;SDS011;8168;49.036;7.690;2023-04-23T14:33:38;2.17;;;1.37;;
16127;SDS011;8168;49.036;7.690;2023-04-23T14:36:09;1.57;;;1.30;;
16127;SDS011;8168;49.036;7.690;2023-04-23T14:38:39;1.47;;;1.17;;
16127;SDS011;8168;49.036;7.690;2023-04-23T14:41:10;1.60;;;1.50;;
16127;SDS011;8168;49.036;7.690;2023-04-23T14:43:40;1.87;;;1.60;;
16127;SDS011;8168;49.036;7.690;2023-04-23T14:46:11;3.80;;;1.30;;
16127;SDS011;8168;49.036;7.690;2023-04-23T14:48:42;3.00;;;1.30;;
16127;SDS011;8168;49.036;7.690;2023-04-23T14:51:13;1.03;;;1.00;;
16127;SDS011;8168;49.036;7.690;2023-04-23T14:53:43;1.43;;;0.97;;
16127;SDS011;8168;49.036;7.690;2023-04-23T14:56:14;1.90;;;0.80;;
16127;SDS011;8168;49.036;7.690;2023-04-23T14:58:45;0.73;;;0.50;;
16127;SDS011;8168;49.036;7.690;2023-04-23T15:01:16;1.33;;;0.90;;
16127;SDS011;8168;49.036;7.690;2023-04-23T15:03:46;1.47;;;0.80;;
16127;SDS011;8168;49.036;7.690;2023-04-23T15:06:17;0.97;;;0.90;;
16127;SDS011;8168;49.036;7.690;2023-04-23T15:08:48;0.70;;;0.70;;
16127;SDS011;8168;49.036;7.690;2023-04-23T15:11:18;1.20;;;1.13;;
16127;SDS011;8168;49.036;7.690;2023-04-23T15:14:05;1.40;;;1.07;;
16127;SDS011;8168;49.036;7.690;2023-04-23T15:16:37;0.90;;;0.90;;
16127;SDS011;8168;49.036;7.690;2023-04-23T15:19:09;2.30;;;1.23;;
16127;SDS011;8168;49.036;7.690;2023-04-23T15:21:40;5.17;;;1.20;;
16127;SDS011;8168;49.036;7.690;2023-04-23T15:24:11;1.60;;;1.50;;
16127;SDS011;8168;49.036;7.690;2023-04-23T15:26:42;4.00;;;1.43;;
16127;SDS011;8168;49.036;7.690;2023-04-23T15:29:15;1.63;;;1.30;;
16127;SDS011;8168;49.036;7.690;2023-04-23T15:31:45;1.27;;;1.17;;
16127;SDS011;8168;49.036;7.690;2023-04-23T15:34:16;2.60;;;1.50;;
16127;SDS011;8168;49.036;7.690;2023-04-23T15:36:46;1.80;;;1.70;;
16127;SDS011;8168;49.036;7.690;2023-04-23T15:39:17;3.50;;;1.30;;
16127;SDS011;8168;49.036;7.690;2023-04-23T15:41:49;1.50;;;1.10;;
16127;SDS011;8168;49.036;7.690;2023-04-23T15:44:23;0.97;;;0.97;;